Time;durP1;ratioP1;P1;durP2;ratioP2;P2;SDS_P1;SDS_P2;PMS_P1;PMS_P2;Temp;Humidity;BMP_temperature;BMP_pressure;BME280_temperature;BME280_humidity;BME280_pressure;Samples;Min_cycle;Max_cycle;Signal;HPM_P1;HPM_P2
2022/05/25 00:01:20;;;;;;;;;;;12.60;99.90;;;;;;5092901;28;20003;-79
2022/05/25 00:03:45;;;;;;;;;;;12.70;99.90;;;;;;5093123;28;19958;-80
2022/05/25 00:06:11;;;;;;;;;;;12.60;99.90;;;;;;5092974;28;20410;-79
2022/05/25 00:08:37;;;;;;;;;;;12.60;99.90;;;;;;5092993;28;19978;-80
2022/05/25 00:11:03;;;;;;;;;;;12.60;99.90;;;;;;5093675;28;20281;-80
2022/05/25 00:13:28;;;;;;;;;;;12.50;99.90;;;;;;5092919;28;19915;-79
2022/05/25 00:15:54;;;;;;;;;;;12.50;99.90;;;;;;5093349;28;20015;-79
2022/05/25 00:18:19;;;;;;;;;;;12.50;99.90;;;;;;5092810;28;20347;-79
2022/05/25 00:20:45;;;;;;;;;;;12.60;99.90;;;;;;5093025;28;19914;-80
2022/05/25 00:23:11;;;;;;;;;;;12.50;99.90;;;;;;5092992;28;20422;-78
2022/05/25 00:25:37;;;;;;;;;;;12.50;99.90;;;;;;5093254;28;19986;-79
2022/05/25 00:28:04;;;;;;;;;;;12.50;99.90;;;;;;5093186;28;19912;-80
2022/05/25 00:30:30;;;;;;;;;;;12.40;99.90;;;;;;5092417;28;19912;-80
2022/05/25 00:32:56;;;;;;;;;;;12.30;99.90;;;;;;5093104;28;20410;-80
2022/05/25 00:35:23;;;;;;;;;;;12.30;99.90;;;;;;5092668;28;19962;-80
2022/05/25 00:37:49;;;;;;;;;;;12.30;99.90;;;;;;5092909;28;20296;-79
2022/05/25 00:40:17;;;;;;;;;;;12.20;99.90;;;;;;5092439;28;19909;-78
2022/05/25 00:42:43;;;;;;;;;;;12.20;99.90;;;;;;5092964;28;19995;-79
2022/05/25 00:45:09;;;;;;;;;;;12.30;99.90;;;;;;5092996;28;19966;-79
2022/05/25 00:47:35;;;;;;;;;;;12.30;99.90;;;;;;5092582;28;20029;-81
2022/05/25 00:50:00;;;;;;;;;;;12.30;99.90;;;;;;5093023;28;20321;-79
2022/05/25 00:52:26;;;;;;;;;;;12.40;99.90;;;;;;5092569;28;19960;-79
2022/05/25 00:54:59;;;;;;;;;;;12.40;99.90;;;;;;5093020;28;19908;-78
2022/05/25 00:57:30;;;;;;;;;;;12.40;99.90;;;;;;5092227;28;20379;-79
2022/05/25 01:00:09;;;;;;;;;;;12.30;99.90;;;;;;5095301;28;19908;-79
2022/05/25 01:02:37;;;;;;;;;;;12.30;99.90;;;;;;5096048;28;20392;-79
2022/05/25 01:05:03;;;;;;;;;;;12.30;99.90;;;;;;5096787;28;19908;-79
2022/05/25 01:07:47;;;;;;;;;;;12.30;99.90;;;;;;5096227;28;20307;-79
2022/05/25 01:10:32;;;;;;;;;;;12.30;99.90;;;;;;5096542;28;19912;-79
2022/05/25 01:13:00;;;;;;;;;;;12.40;99.90;;;;;;5096465;28;20061;-79
2022/05/25 01:15:26;;;;;;;;;;;12.40;99.90;;;;;;5096002;28;19927;-79
2022/05/25 01:17:51;;;;;;;;;;;12.30;99.90;;;;;;5096387;28;19908;-79
2022/05/25 01:20:20;;;;;;;;;;;12.30;99.90;;;;;;5095951;28;19912;-79
2022/05/25 01:23:04;;;;;;;;;;;12.30;99.90;;;;;;5096318;28;19923;-79
2022/05/25 01:26:04;;;;;;;;;;;12.30;99.90;;;;;;5095866;28;19993;-79
2022/05/25 01:28:52;;;;;;;;;;;12.30;99.90;;;;;;5053026;28;19962;-78
2022/05/25 01:31:22;;;;;;;;;;;12.30;99.90;;;;;;5093134;28;19923;-78
2022/05/25 01:33:53;;;;;;;;;;;12.30;99.90;;;;;;5096315;28;19960;-78
2022/05/25 01:36:24;;;;;;;;;;;12.20;99.90;;;;;;5095821;28;20002;-78
2022/05/25 01:38:52;;;;;;;;;;;12.20;99.90;;;;;;5096155;28;19915;-80
2022/05/25 01:41:22;;;;;;;;;;;12.20;99.90;;;;;;5095549;28;20376;-80
2022/05/25 01:43:51;;;;;;;;;;;12.10;99.90;;;;;;5096126;28;19908;-82
2022/05/25 01:46:23;;;;;;;;;;;12.10;99.90;;;;;;5095494;28;19912;-81
2022/05/25 01:48:49;;;;;;;;;;;12.20;99.90;;;;;;5095520;28;20001;-82
2022/05/25 01:51:18;;;;;;;;;;;12.20;99.90;;;;;;5095726;28;19912;-82
2022/05/25 01:53:45;;;;;;;;;;;12.20;99.90;;;;;;5111479;28;19912;-82
2022/05/25 01:56:13;;;;;;;;;;;12.00;99.90;;;;;;5111639;28;19990;-81
2022/05/25 01:58:40;;;;;;;;;;;12.10;99.90;;;;;;5095534;28;19954;-81
2022/05/25 02:01:07;;;;;;;;;;;12.10;99.90;;;;;;5095590;28;19909;-82
2022/05/25 02:06:34;;;;;;;;;;;12.10;99.90;;;;;;5095243;28;19998;-81
2022/05/25 02:08:59;;;;;;;;;;;12.10;99.90;;;;;;5095137;28;20262;-81
2022/05/25 02:11:34;;;;;;;;;;;12.10;99.90;;;;;;5094527;28;19934;-80
2022/05/25 02:14:14;;;;;;;;;;;12.10;99.90;;;;;;5095377;28;19908;-81
2022/05/25 02:16:45;;;;;;;;;;;12.10;99.90;;;;;;5094999;28;20023;-81
2022/05/25 02:19:40;;;;;;;;;;;12.20;99.90;;;;;;5094918;28;20319;-82
2022/05/25 02:22:24;;;;;;;;;;;12.10;99.90;;;;;;5085983;28;20022;-81
2022/05/25 02:24:58;;;;;;;;;;;12.00;99.90;;;;;;5095222;28;19908;-81
2022/05/25 02:27:28;;;;;;;;;;;12.10;99.90;;;;;;5094673;28;19908;-82
2022/05/25 02:29:58;;;;;;;;;;;12.10;99.90;;;;;;5095337;28;19919;-82
2022/05/25 02:32:27;;;;;;;;;;;12.10;99.90;;;;;;5094627;28;20299;-81
2022/05/25 02:34:53;;;;;;;;;;;12.10;99.90;;;;;;5095039;28;19908;-81
2022/05/25 02:37:22;;;;;;;;;;;12.00;99.90;;;;;;5094591;28;20272;-78
2022/05/25 02:39:52;;;;;;;;;;;12.10;99.90;;;;;;5094789;28;19956;-82
2022/05/25 02:42:18;;;;;;;;;;;12.00;99.90;;;;;;5094675;28;19912;-81
2022/05/25 02:44:44;;;;;;;;;;;12.10;99.90;;;;;;5094095;28;19908;-81
2022/05/25 02:47:09;;;;;;;;;;;12.00;99.90;;;;;;5094679;28;19914;-81
2022/05/25 02:49:35;;;;;;;;;;;12.00;99.90;;;;;;5094267;28;20411;-81
2022/05/25 02:52:01;;;;;;;;;;;11.90;99.90;;;;;;5094671;28;19920;-82
2022/05/25 02:54:26;;;;;;;;;;;11.90;99.90;;;;;;5093878;28;20370;-81
2022/05/25 02:56:52;;;;;;;;;;;11.90;99.90;;;;;;5094645;28;20385;-82
2022/05/25 02:59:18;;;;;;;;;;;12.00;99.90;;;;;;5094179;28;19908;-82
2022/05/25 03:01:43;;;;;;;;;;;12.00;99.90;;;;;;5093758;28;19917;-81
2022/05/25 03:04:09;;;;;;;;;;;12.00;99.90;;;;;;5094390;28;19909;-82
2022/05/25 03:06:35;;;;;;;;;;;12.00;99.90;;;;;;5093989;28;20292;-82
2022/05/25 03:09:00;;;;;;;;;;;12.00;99.90;;;;;;5094367;28;19912;-81
2022/05/25 03:11:26;;;;;;;;;;;12.00;99.90;;;;;;5093660;28;19912;-80
2022/05/25 03:13:51;;;;;;;;;;;12.00;99.90;;;;;;5094354;28;19908;-81
2022/05/25 03:16:19;;;;;;;;;;;12.00;99.90;;;;;;5093706;28;19931;-81
2022/05/25 03:18:45;;;;;;;;;;;12.00;99.90;;;;;;5093634;28;19912;-81
2022/05/25 03:21:10;;;;;;;;;;;12.00;99.90;;;;;;5093680;28;19934;-81
2022/05/25 03:23:36;;;;;;;;;;;12.00;99.90;;;;;;5093358;28;19954;-80
2022/05/25 03:26:02;;;;;;;;;;;11.90;99.90;;;;;;5093926;28;19931;-81
2022/05/25 03:28:28;;;;;;;;;;;12.00;99.90;;;;;;5093203;28;19920;-81
2022/05/25 03:30:54;;;;;;;;;;;11.90;99.90;;;;;;5093933;28;19916;-81
2022/05/25 03:33:19;;;;;;;;;;;12.00;99.90;;;;;;5093910;28;19923;-82
2022/05/25 03:35:45;;;;;;;;;;;12.00;99.90;;;;;;5093427;28;19908;-81
2022/05/25 03:38:10;;;;;;;;;;;12.00;99.90;;;;;;5093800;28;19908;-82
2022/05/25 03:40:37;;;;;;;;;;;11.90;99.90;;;;;;5093358;28;19953;-81
2022/05/25 03:43:04;;;;;;;;;;;11.90;99.90;;;;;;5093673;28;19915;-80
2022/05/25 03:45:29;;;;;;;;;;;12.00;99.90;;;;;;5093209;28;19908;-80
2022/05/25 03:47:55;;;;;;;;;;;12.00;99.90;;;;;;5093366;28;19919;-81
2022/05/25 03:50:20;;;;;;;;;;;12.00;99.90;;;;;;5093875;28;19912;-82
2022/05/25 03:52:46;;;;;;;;;;;12.00;99.90;;;;;;5093302;28;19916;-81
2022/05/25 03:55:12;;;;;;;;;;;12.00;99.90;;;;;;5093603;28;19914;-81
2022/05/25 03:57:37;;;;;;;;;;;12.00;99.90;;;;;;5093409;28;19912;-81
2022/05/25 04:00:04;;;;;;;;;;;12.00;99.90;;;;;;5093160;28;19916;-81
2022/05/25 04:02:30;;;;;;;;;;;12.10;99.90;;;;;;5092986;28;19911;-81
2022/05/25 04:05:08;;;;;;;;;;;12.00;99.90;;;;;;5093076;28;19991;-81
2022/05/25 04:07:35;;;;;;;;;;;12.00;99.90;;;;;;5092961;28;19954;-80
2022/05/25 04:10:01;;;;;;;;;;;12.10;99.90;;;;;;5093324;28;19920;-80
2022/05/25 04:12:26;;;;;;;;;;;12.10;99.90;;;;;;5092774;28;19962;-80
2022/05/25 04:14:52;;;;;;;;;;;12.10;99.90;;;;;;5093099;28;19920;-80
2022/05/25 04:17:19;;;;;;;;;;;12.20;99.90;;;;;;5093017;28;19912;-82
2022/05/25 04:19:44;;;;;;;;;;;12.20;99.90;;;;;;5092451;28;19953;-81
2022/05/25 04:22:10;;;;;;;;;;;12.20;99.90;;;;;;5109063;28;19908;-80
2022/05/25 04:24:35;;;;;;;;;;;12.20;99.90;;;;;;5092789;28;19908;-81
2022/05/25 04:27:01;;;;;;;;;;;12.20;99.90;;;;;;5092896;28;20253;-80
2022/05/25 04:29:27;;;;;;;;;;;12.20;99.90;;;;;;5092774;28;19923;-79
2022/05/25 04:31:52;;;;;;;;;;;12.20;99.90;;;;;;5093111;28;19913;-81
2022/05/25 04:34:18;;;;;;;;;;;12.20;99.90;;;;;;5112237;28;19915;-80
2022/05/25 04:36:44;;;;;;;;;;;12.20;99.90;;;;;;5112564;28;19916;-80
2022/05/25 04:39:10;;;;;;;;;;;12.30;99.90;;;;;;5097325;28;20272;-80
2022/05/25 04:41:36;;;;;;;;;;;12.30;99.90;;;;;;5096401;28;19918;-80
2022/05/25 04:44:03;;;;;;;;;;;12.30;99.90;;;;;;5097158;28;19917;-80
2022/05/25 04:46:29;;;;;;;;;;;12.40;99.90;;;;;;5096681;28;19915;-81
2022/05/25 04:48:55;;;;;;;;;;;12.40;99.90;;;;;;5096503;28;19912;-80
2022/05/25 04:51:20;;;;;;;;;;;12.40;99.90;;;;;;5096899;28;19948;-80
2022/05/25 04:53:46;;;;;;;;;;;12.40;99.90;;;;;;5096180;28;19912;-81
2022/05/25 04:58:55;;;;;;;;;;;12.40;99.90;;;;;;5096656;28;19961;-80
2022/05/25 05:01:22;;;;;;;;;;;12.40;99.90;;;;;;5096765;28;19908;-81
2022/05/25 05:03:47;;;;;;;;;;;12.40;99.90;;;;;;5096159;28;19951;-80
2022/05/25 05:06:13;;;;;;;;;;;12.50;99.90;;;;;;5096579;28;19936;-80
2022/05/25 05:08:39;;;;;;;;;;;12.50;99.90;;;;;;5096145;28;19912;-80
2022/05/25 05:11:06;;;;;;;;;;;12.50;99.90;;;;;;5096462;28;20365;-81
2022/05/25 05:13:32;;;;;;;;;;;12.50;99.90;;;;;;5096164;28;19912;-80
2022/05/25 05:16:02;;;;;;;;;;;12.50;99.90;;;;;;5096645;28;19924;-81
2022/05/25 05:18:28;;;;;;;;;;;12.50;99.90;;;;;;5096657;28;19919;-81
2022/05/25 05:20:53;;;;;;;;;;;12.50;99.90;;;;;;5095984;28;19908;-81
2022/05/25 05:23:19;;;;;;;;;;;12.50;99.90;;;;;;5099104;28;19950;-86
2022/05/25 05:25:44;;;;;;;;;;;12.40;99.90;;;;;;5096345;28;19912;-88
2022/05/25 05:28:12;;;;;;;;;;;12.40;99.90;;;;;;5101222;28;20265;-88
2022/05/25 05:31:04;;;;;;;;;;;12.40;99.90;;;;;;5111319;28;19943;-81
2022/05/25 05:33:30;;;;;;;;;;;12.40;99.90;;;;;;5110721;28;20002;-78
2022/05/25 05:36:14;;;;;;;;;;;12.30;99.90;;;;;;5098604;28;19912;-89
2022/05/25 05:38:44;;;;;;;;;;;12.30;99.90;;;;;;5095591;28;19915;-87
2022/05/25 05:41:11;;;;;;;;;;;12.30;99.90;;;;;;5095933;28;19998;-85
2022/05/25 05:43:37;;;;;;;;;;;12.40;99.90;;;;;;5111265;28;19908;-85
2022/05/25 05:46:03;;;;;;;;;;;12.40;99.90;;;;;;5095012;28;19908;-84
2022/05/25 05:48:29;;;;;;;;;;;12.40;99.90;;;;;;5095625;28;20361;-84
2022/05/25 05:50:56;;;;;;;;;;;12.40;99.90;;;;;;5095609;28;19948;-83
2022/05/25 05:53:26;;;;;;;;;;;12.40;99.90;;;;;;5095703;28;19944;-83
2022/05/25 05:55:52;;;;;;;;;;;12.40;99.90;;;;;;5095336;28;19911;-83
2022/05/25 05:58:18;;;;;;;;;;;12.50;99.90;;;;;;5095641;28;20360;-83
2022/05/25 06:00:43;;;;;;;;;;;12.60;99.90;;;;;;5095143;28;20380;-82
2022/05/25 06:03:09;;;;;;;;;;;12.60;99.90;;;;;;5095479;28;20010;-83
2022/05/25 06:05:35;;;;;;;;;;;12.60;99.90;;;;;;5094906;28;20285;-82
2022/05/25 06:08:14;;;;;;;;;;;12.60;99.90;;;;;;5095564;28;19919;-83
2022/05/25 06:10:40;;;;;;;;;;;12.70;99.90;;;;;;5094826;28;19919;-82
2022/05/25 06:13:07;;;;;;;;;;;12.70;99.90;;;;;;5094861;28;20284;-83
2022/05/25 06:21:02;;;;;;;;;;;12.90;99.90;;;;;;5095296;28;19947;-82
2022/05/25 06:23:28;;;;;;;;;;;13.00;99.90;;;;;;5094988;28;20357;-82
2022/05/25 06:25:53;;;;;;;;;;;13.20;99.90;;;;;;5094568;28;19955;-83
2022/05/25 06:28:19;;;;;;;;;;;13.30;99.90;;;;;;5094918;28;19912;-81
2022/05/25 06:30:45;;;;;;;;;;;13.30;99.90;;;;;;5094632;28;19912;-81
2022/05/25 06:33:10;;;;;;;;;;;13.40;99.90;;;;;;5094827;28;19908;-81
2022/05/25 06:35:37;;;;;;;;;;;13.30;99.90;;;;;;5094089;28;19908;-81
2022/05/25 06:38:03;;;;;;;;;;;13.30;99.90;;;;;;5094824;28;19960;-82
2022/05/25 06:40:28;;;;;;;;;;;13.40;99.90;;;;;;5094663;28;19908;-81
2022/05/25 06:42:54;;;;;;;;;;;13.50;99.90;;;;;;5094209;28;20357;-81
2022/05/25 06:45:19;;;;;;;;;;;13.50;99.90;;;;;;5094275;28;19908;-81
2022/05/25 06:47:45;;;;;;;;;;;13.70;99.90;;;;;;5094081;28;20346;-81
2022/05/25 06:50:11;;;;;;;;;;;13.80;99.90;;;;;;5094542;28;19964;-82
2022/05/25 06:52:37;;;;;;;;;;;13.80;99.90;;;;;;5094016;28;19909;-80
2022/05/25 06:55:03;;;;;;;;;;;14.00;99.90;;;;;;5094473;28;19912;-81
2022/05/25 06:57:28;;;;;;;;;;;14.10;99.90;;;;;;5094305;28;19943;-81
2022/05/25 06:59:54;;;;;;;;;;;14.20;99.90;;;;;;5093957;28;20361;-81
2022/05/25 07:02:19;;;;;;;;;;;14.30;99.90;;;;;;5094250;28;19993;-82
2022/05/25 07:04:45;;;;;;;;;;;14.40;99.90;;;;;;5093821;28;19915;-80
2022/05/25 07:07:10;;;;;;;;;;;14.50;99.90;;;;;;5094348;28;19915;-81
2022/05/25 07:09:39;;;;;;;;;;;14.50;99.90;;;;;;5093655;28;19912;-80
2022/05/25 07:12:05;;;;;;;;;;;14.60;99.90;;;;;;5094111;28;19935;-81
2022/05/25 07:14:31;;;;;;;;;;;14.50;99.90;;;;;;5093571;28;19920;-82
2022/05/25 07:16:59;;;;;;;;;;;14.60;99.90;;;;;;5093524;28;19915;-82
2022/05/25 07:19:24;;;;;;;;;;;14.60;99.90;;;;;;5093878;28;19920;-81
2022/05/25 07:21:50;;;;;;;;;;;14.60;99.90;;;;;;5075153;28;20372;-80
2022/05/25 07:24:16;;;;;;;;;;;14.60;99.90;;;;;;5093801;28;19930;-81
2022/05/25 07:26:41;;;;;;;;;;;14.70;99.90;;;;;;5093441;28;19908;-80
2022/05/25 07:29:07;;;;;;;;;;;14.70;99.90;;;;;;5093721;28;20357;-80
2022/05/25 07:31:39;;;;;;;;;;;14.80;99.90;;;;;;5109480;28;20003;-78
2022/05/25 07:34:08;;;;;;;;;;;14.80;99.90;;;;;;5093645;28;20357;-79
2022/05/25 07:36:35;;;;;;;;;;;14.70;99.90;;;;;;5093616;28;19965;-81
2022/05/25 07:39:03;;;;;;;;;;;14.70;99.90;;;;;;5092959;28;19936;-81
2022/05/25 07:41:30;;;;;;;;;;;14.80;99.90;;;;;;5093168;28;20266;-79
2022/05/25 07:43:59;;;;;;;;;;;14.90;99.90;;;;;;5108495;28;19908;-80
2022/05/25 07:46:25;;;;;;;;;;;14.90;99.90;;;;;;5093420;28;19908;-81
2022/05/25 07:48:51;;;;;;;;;;;14.90;99.90;;;;;;5093129;28;20371;-81
2022/05/25 07:51:17;;;;;;;;;;;14.90;99.90;;;;;;5093704;28;20015;-82
2022/05/25 07:53:57;;;;;;;;;;;14.90;99.90;;;;;;5093083;28;19908;-81
2022/05/25 07:56:28;;;;;;;;;;;15.10;99.90;;;;;;5093461;28;19908;-82
2022/05/25 07:58:54;;;;;;;;;;;15.20;99.90;;;;;;5092842;28;19907;-81
2022/05/25 08:05:43;;;;;;;;;;;15.30;99.90;;;;;;5093302;28;19923;-80
2022/05/25 08:06:51;;;;;;;;;;;15.40;99.90;;;;;;5092746;28;19914;-80
2022/05/25 08:09:16;;;;;;;;;;;15.40;99.90;;;;;;5092955;28;20006;-80
2022/05/25 08:11:43;;;;;;;;;;;15.40;99.90;;;;;;5107048;28;19913;-80
2022/05/25 08:14:09;;;;;;;;;;;15.40;99.90;;;;;;5104594;28;19973;-81
2022/05/25 08:16:34;;;;;;;;;;;15.40;99.90;;;;;;5095637;28;19940;-81
2022/05/25 08:19:00;;;;;;;;;;;15.60;99.90;;;;;;5093768;28;19912;-82
2022/05/25 08:21:26;;;;;;;;;;;15.70;99.90;;;;;;5093352;28;20003;-81
2022/05/25 08:23:51;;;;;;;;;;;15.70;99.90;;;;;;5092719;28;20391;-80
2022/05/25 08:26:17;;;;;;;;;;;15.70;99.90;;;;;;5093130;28;20452;-81
2022/05/25 08:28:42;;;;;;;;;;;15.80;99.90;;;;;;5092724;28;19916;-80
2022/05/25 08:31:08;;;;;;;;;;;15.70;99.90;;;;;;5093140;28;19916;-81
2022/05/25 08:33:33;;;;;;;;;;;15.80;99.90;;;;;;5092814;28;19915;-80
2022/05/25 08:36:00;;;;;;;;;;;15.80;99.90;;;;;;5092571;28;19962;-80
2022/05/25 08:38:26;;;;;;;;;;;15.90;99.90;;;;;;5092819;28;19999;-81
2022/05/25 08:40:52;;;;;;;;;;;16.10;99.90;;;;;;5092462;28;20009;-81
2022/05/25 08:43:22;;;;;;;;;;;16.20;99.90;;;;;;5092931;28;19912;-82
2022/05/25 08:45:52;;;;;;;;;;;16.40;99.90;;;;;;5092552;28;19908;-81
2022/05/25 08:48:19;;;;;;;;;;;16.30;99.90;;;;;;5093091;28;19916;-81
2022/05/25 08:50:48;;;;;;;;;;;16.30;99.90;;;;;;5092201;28;19912;-80
2022/05/25 08:53:13;;;;;;;;;;;16.20;99.90;;;;;;5092799;28;19908;-81
2022/05/25 08:55:39;;;;;;;;;;;16.20;99.90;;;;;;5092509;28;19909;-81
2022/05/25 08:58:06;;;;;;;;;;;16.30;99.90;;;;;;5092330;28;19911;-81
2022/05/25 09:00:31;;;;;;;;;;;16.30;99.90;;;;;;5092863;28;19908;-81
2022/05/25 09:03:07;;;;;;;;;;;16.20;99.90;;;;;;5092586;28;19918;-81
2022/05/25 09:05:51;;;;;;;;;;;16.20;99.90;;;;;;5094346;28;19908;-81
2022/05/25 09:08:29;;;;;;;;;;;16.00;99.90;;;;;;5111339;28;19959;-80
2022/05/25 09:11:01;;;;;;;;;;;16.00;99.90;;;;;;5093233;28;19912;-80
2022/05/25 09:13:33;;;;;;;;;;;15.80;99.90;;;;;;5093166;28;20420;-81
2022/05/25 09:16:18;;;;;;;;;;;15.90;99.90;;;;;;5092251;28;20316;-81
2022/05/25 09:18:53;;;;;;;;;;;15.80;99.90;;;;;;5092071;28;20442;-79
2022/05/25 09:21:20;;;;;;;;;;;15.80;99.90;;;;;;5095336;28;19912;-80
2022/05/25 09:23:46;;;;;;;;;;;15.80;99.90;;;;;;5095833;28;19915;-79
2022/05/25 09:26:13;;;;;;;;;;;15.90;99.90;;;;;;5096163;28;19916;-81
2022/05/25 09:28:42;;;;;;;;;;;16.10;99.90;;;;;;5096008;28;20250;-81
2022/05/25 09:31:11;;;;;;;;;;;16.20;99.90;;;;;;5095546;28;20003;-80
2022/05/25 09:33:43;;;;;;;;;;;16.30;99.90;;;;;;5096024;28;20357;-82
2022/05/25 09:36:11;;;;;;;;;;;16.50;99.90;;;;;;5095206;28;19914;-82
2022/05/25 09:38:43;;;;;;;;;;;16.60;99.90;;;;;;5096010;28;19908;-80
2022/05/25 09:41:10;;;;;;;;;;;16.70;99.90;;;;;;5095375;28;19943;-80
2022/05/25 09:43:36;;;;;;;;;;;16.80;99.90;;;;;;5095954;28;19908;-81
2022/05/25 09:46:28;;;;;;;;;;;16.70;99.90;;;;;;5095422;28;20301;-80
2022/05/25 09:48:58;;;;;;;;;;;16.50;99.90;;;;;;5093143;28;20368;-80
2022/05/25 09:51:41;;;;;;;;;;;16.40;99.90;;;;;;5095632;28;19919;-80
2022/05/25 09:54:15;;;;;;;;;;;16.20;99.90;;;;;;5095265;28;19938;-81
2022/05/25 09:56:45;;;;;;;;;;;16.10;99.90;;;;;;5095704;28;19955;-80
2022/05/25 09:59:20;;;;;;;;;;;15.90;99.90;;;;;;5095438;28;19912;-80
2022/05/25 10:01:48;;;;;;;;;;;15.80;99.90;;;;;;5095560;28;19913;-82
2022/05/25 10:04:32;;;;;;;;;;;15.70;99.90;;;;;;5095076;28;20276;-80
2022/05/25 10:06:58;;;;;;;;;;;15.70;99.90;;;;;;5095067;28;19942;-80
2022/05/25 10:09:27;;;;;;;;;;;15.60;99.90;;;;;;5095252;28;19919;-80
2022/05/25 10:11:57;;;;;;;;;;;15.70;99.90;;;;;;5094790;28;19912;-79
2022/05/25 10:14:23;;;;;;;;;;;15.70;99.90;;;;;;5095077;28;19915;-80
2022/05/25 10:16:49;;;;;;;;;;;15.60;99.90;;;;;;5094785;28;20273;-79
2022/05/25 10:19:17;;;;;;;;;;;15.90;99.90;;;;;;5095211;28;19908;-81
2022/05/25 10:22:00;;;;;;;;;;;16.10;99.90;;;;;;5094994;28;19912;-81
2022/05/25 10:24:28;;;;;;;;;;;16.10;99.90;;;;;;5095177;28;19908;-81
2022/05/25 10:26:58;;;;;;;;;;;16.10;99.90;;;;;;5094298;28;20354;-80
2022/05/25 10:38:07;;;;;;;;;;;16.20;99.90;;;;;;5094535;28;19930;-79
2022/05/25 10:40:32;;;;;;;;;;;16.40;99.90;;;;;;5110370;28;19908;-80
2022/05/25 10:42:58;;;;;;;;;;;16.70;99.90;;;;;;5110073;28;19919;-79
2022/05/25 10:45:32;;;;;;;;;;;16.80;99.90;;;;;;5095098;28;19962;-79
2022/05/25 10:48:07;;;;;;;;;;;17.00;99.90;;;;;;5094058;28;19913;-80
2022/05/25 10:50:42;;;;;;;;;;;17.30;99.90;;;;;;5094283;28;20357;-79
2022/05/25 10:53:17;;;;;;;;;;;17.40;99.90;;;;;;5109761;28;20295;-81
2022/05/25 10:55:48;;;;;;;;;;;17.60;99.90;;;;;;5094506;28;20279;-79
2022/05/25 10:58:34;;;;;;;;;;;17.70;99.90;;;;;;5093980;28;19908;-79
2022/05/25 11:01:05;;;;;;;;;;;17.90;99.90;;;;;;5093308;28;19908;-81
2022/05/25 11:03:34;;;;;;;;;;;18.00;99.90;;;;;;5094414;28;19908;-82
2022/05/25 11:06:23;;;;;;;;;;;17.90;99.90;;;;;;5093737;28;19915;-81
2022/05/25 11:09:07;;;;;;;;;;;17.80;99.90;;;;;;5088152;28;19947;-82
2022/05/25 11:11:33;;;;;;;;;;;17.60;99.90;;;;;;5109958;28;19919;-82
2022/05/25 11:14:06;;;;;;;;;;;17.40;99.90;;;;;;5093681;28;19915;-81
2022/05/25 11:16:38;;;;;;;;;;;17.10;99.90;;;;;;5093952;28;20289;-81
2022/05/25 11:19:13;;;;;;;;;;;16.90;99.90;;;;;;5093639;28;19919;-82
2022/05/25 11:22:03;;;;;;;;;;;16.90;99.90;;;;;;5094143;28;19919;-82
2022/05/25 11:24:47;;;;;;;;;;;16.90;99.90;;;;;;5095769;28;19912;-81
2022/05/25 11:27:32;;;;;;;;;;;16.80;99.90;;;;;;5098975;28;19908;-82
2022/05/25 11:29:57;;;;;;;;;;;16.70;99.90;;;;;;5095257;28;19912;-82
2022/05/25 11:32:31;;;;;;;;;;;16.70;99.90;;;;;;5094100;28;19919;-82
2022/05/25 11:35:11;;;;;;;;;;;17.00;99.90;;;;;;5093608;28;19908;-81
2022/05/25 11:37:55;;;;;;;;;;;17.20;99.90;;;;;;5093800;28;19993;-81
2022/05/25 11:40:29;;;;;;;;;;;17.30;99.90;;;;;;5093805;28;19934;-82
2022/05/25 11:43:07;;;;;;;;;;;17.50;99.90;;;;;;5092747;28;20277;-81
2022/05/25 11:45:52;;;;;;;;;;;17.60;99.90;;;;;;5093703;28;19970;-81
2022/05/25 11:48:18;;;;;;;;;;;17.80;99.90;;;;;;5093618;28;20443;-82
2022/05/25 11:51:02;;;;;;;;;;;17.90;99.90;;;;;;5093546;28;19951;-82
2022/05/25 11:53:27;;;;;;;;;;;18.20;99.90;;;;;;5093596;28;20410;-82
2022/05/25 11:55:59;;;;;;;;;;;18.30;99.90;;;;;;5093063;28;19908;-78
2022/05/25 11:58:43;;;;;;;;;;;18.20;99.90;;;;;;5093571;28;19908;-82
2022/05/25 12:01:27;;;;;;;;;;;18.30;99.90;;;;;;5092938;28;19916;-83
2022/05/25 12:04:04;;;;;;;;;;;18.40;99.90;;;;;;5093477;28;19908;-83
2022/05/25 12:06:48;;;;;;;;;;;18.60;99.90;;;;;;5093407;28;20353;-83
2022/05/25 12:09:14;;;;;;;;;;;18.70;99.90;;;;;;5092850;28;20324;-81
2022/05/25 12:11:59;;;;;;;;;;;18.80;99.90;;;;;;5093469;28;20315;-82
2022/05/25 12:14:34;;;;;;;;;;;18.70;99.90;;;;;;5093475;28;19935;-81
2022/05/25 12:17:09;;;;;;;;;;;18.70;99.90;;;;;;5092863;28;20407;-82
2022/05/25 12:19:35;;;;;;;;;;;18.70;99.90;;;;;;5097439;28;20058;-82
2022/05/25 12:22:06;;;;;;;;;;;18.70;99.90;;;;;;5107073;28;19916;-82
2022/05/25 12:24:37;;;;;;;;;;;18.50;99.90;;;;;;5099841;28;20023;-81
2022/05/25 12:27:05;;;;;;;;;;;18.30;99.90;;;;;;5092794;28;19909;-81
2022/05/25 12:29:33;;;;;;;;;;;18.30;99.90;;;;;;5093123;28;20391;-83
2022/05/25 12:31:59;;;;;;;;;;;18.40;99.90;;;;;;5092715;28;19973;-81
2022/05/25 12:34:46;;;;;;;;;;;18.30;99.90;;;;;;5092990;28;20421;-82
2022/05/25 12:37:14;;;;;;;;;;;18.10;99.90;;;;;;5092737;28;20349;-82
2022/05/25 12:39:43;;;;;;;;;;;17.80;99.90;;;;;;5093257;28;19909;-82
2022/05/25 12:42:23;;;;;;;;;;;17.70;99.90;;;;;;5092688;28;19913;-82
2022/05/25 12:50:33;;;;;;;;;;;17.80;99.90;;;;;;5092924;28;20276;-82
2022/05/25 12:53:16;;;;;;;;;;;18.00;99.90;;;;;;5092698;28;19912;-81
2022/05/25 12:55:41;;;;;;;;;;;17.90;99.90;;;;;;5096856;28;19908;-82
2022/05/25 12:58:09;;;;;;;;;;;18.00;99.90;;;;;;5096427;28;19908;-82
2022/05/25 13:00:36;;;;;;;;;;;17.90;99.90;;;;;;5097097;28;19962;-81
2022/05/25 13:03:35;;;;;;;;;;;17.90;99.90;;;;;;5096509;28;19913;-82
2022/05/25 13:06:01;;;;;;;;;;;17.90;99.90;;;;;;5072999;28;19915;-81
2022/05/25 13:08:42;;;;;;;;;;;17.90;99.90;;;;;;5096638;28;19912;-82
2022/05/25 13:11:08;;;;;;;;;;;17.90;99.90;;;;;;5111983;28;20395;-82
2022/05/25 13:13:38;;;;;;;;;;;17.80;99.90;;;;;;5096871;28;19908;-83
2022/05/25 13:16:04;;;;;;;;;;;17.90;99.90;;;;;;5095764;28;20331;-81
2022/05/25 13:18:46;;;;;;;;;;;18.00;99.90;;;;;;5096582;28;19912;-81
2022/05/25 13:21:27;;;;;;;;;;;18.30;99.90;;;;;;5096280;28;19966;-82
2022/05/25 13:23:52;;;;;;;;;;;18.40;99.90;;;;;;5096713;28;19908;-82
2022/05/25 13:26:23;;;;;;;;;;;18.60;99.90;;;;;;5096342;28;20118;-82
2022/05/25 13:28:53;;;;;;;;;;;18.70;99.90;;;;;;5112256;28;19916;-82
2022/05/25 13:31:30;;;;;;;;;;;18.70;99.90;;;;;;5096241;28;19917;-81
2022/05/25 13:33:58;;;;;;;;;;;18.60;99.90;;;;;;5096532;28;19908;-82
2022/05/25 13:36:24;;;;;;;;;;;18.60;99.90;;;;;;5096093;28;19908;-81
2022/05/25 13:38:54;;;;;;;;;;;18.40;99.90;;;;;;5096856;28;20377;-82
2022/05/25 13:41:30;;;;;;;;;;;18.40;99.90;;;;;;5095805;28;19922;-83
2022/05/25 13:44:06;;;;;;;;;;;18.30;99.90;;;;;;5096737;28;20013;-82
2022/05/25 13:46:46;;;;;;;;;;;18.20;99.90;;;;;;5096101;28;20384;-82
2022/05/25 13:49:31;;;;;;;;;;;18.10;99.90;;;;;;5095703;28;19916;-82
2022/05/25 13:52:13;;;;;;;;;;;18.10;99.90;;;;;;5096293;28;19912;-82
2022/05/25 13:54:38;;;;;;;;;;;18.10;99.90;;;;;;5111736;28;19912;-82
2022/05/25 13:57:04;;;;;;;;;;;18.10;99.90;;;;;;5095468;28;19909;-82
2022/05/25 13:59:34;;;;;;;;;;;18.30;99.90;;;;;;5096225;28;19908;-82
2022/05/25 14:02:15;;;;;;;;;;;18.30;99.90;;;;;;5096244;28;19943;-81
2022/05/25 14:04:41;;;;;;;;;;;18.40;99.90;;;;;;5097586;28;19915;-81
2022/05/25 14:07:06;;;;;;;;;;;18.30;99.90;;;;;;5096581;28;19912;-81
2022/05/25 14:12:20;;;;;;;;;;;18.30;99.90;;;;;;5101424;28;19920;-82
2022/05/25 14:14:53;;;;;;;;;;;18.20;99.90;;;;;;5097079;28;19970;-82
2022/05/25 14:17:21;;;;;;;;;;;18.20;99.90;;;;;;5094599;28;19912;-82
2022/05/25 14:19:47;;;;;;;;;;;18.30;99.90;;;;;;5095200;28;19908;-81
2022/05/25 14:22:13;;;;;;;;;;;18.40;99.90;;;;;;5094709;28;19908;-81
2022/05/25 14:24:41;;;;;;;;;;;18.50;99.90;;;;;;5095138;28;20003;-82
2022/05/25 14:27:22;;;;;;;;;;;18.50;99.90;;;;;;5094657;28;19991;-82
2022/05/25 14:29:48;;;;;;;;;;;18.40;99.90;;;;;;5094937;28;20418;-82
2022/05/25 14:32:16;;;;;;;;;;;18.50;99.90;;;;;;5094835;28;19916;-80
2022/05/25 14:34:43;;;;;;;;;;;18.50;99.90;;;;;;5095319;28;19912;-81
2022/05/25 14:37:10;;;;;;;;;;;18.50;99.90;;;;;;5094172;28;19908;-79
2022/05/25 14:39:36;;;;;;;;;;;18.60;99.90;;;;;;5098902;28;19915;-80
2022/05/25 14:42:04;;;;;;;;;;;18.90;99.90;;;;;;5107236;28;19908;-80
2022/05/25 14:44:31;;;;;;;;;;;19.20;99.90;;;;;;5097931;28;19908;-80
2022/05/25 14:46:57;;;;;;;;;;;19.30;99.90;;;;;;5096234;28;19934;-81
2022/05/25 14:49:23;;;;;;;;;;;19.20;99.90;;;;;;5094107;28;19942;-80
2022/05/25 14:51:48;;;;;;;;;;;19.00;99.90;;;;;;5094612;28;20017;-81
2022/05/25 14:54:20;;;;;;;;;;;19.00;99.90;;;;;;5094407;28;19916;-80
2022/05/25 14:56:49;;;;;;;;;;;18.70;99.90;;;;;;5094473;28;19908;-80
2022/05/25 14:59:29;;;;;;;;;;;18.40;99.90;;;;;;5093664;28;19911;-80
2022/05/25 15:01:56;;;;;;;;;;;18.30;99.90;;;;;;5094386;28;19908;-80